Time;durP1;ratioP1;P1;durP2;ratioP2;P2;SDS_P1;SDS_P2;PMS_P1;PMS_P2;Temp;Humidity;BMP_temperature;BMP_pressure;BME280_temperature;BME280_humidity;BME280_pressure;Samples;Min_cycle;Max_cycle;Signal;HPM_P1;HPM_P2
2020/12/04 00:00:29;;;;;;;1.90;1.80;;;7.70;99.90;;;;;;5076997;28;20244;-93
2020/12/04 00:02:55;;;;;;;1.60;1.50;;;7.60;99.90;;;;;;5077065;28;20245;-92
2020/12/04 00:05:22;;;;;;;1.57;1.47;;;7.50;99.90;;;;;;5078011;28;20202;-93
2020/12/04 00:07:48;;;;;;;1.30;1.20;;;7.60;99.90;;;;;;5077252;28;20256;-93
2020/12/04 00:10:15;;;;;;;1.60;1.50;;;7.60;99.90;;;;;;5076754;28;20206;-93
2020/12/04 00:12:41;;;;;;;1.10;1.10;;;7.60;99.90;;;;;;5076634;28;20256;-93
2020/12/04 00:15:09;;;;;;;1.20;1.20;;;7.70;99.90;;;;;;5077440;28;20288;-92
2020/12/04 00:17:36;;;;;;;3.57;1.40;;;7.70;99.90;;;;;;5076739;28;20624;-91
2020/12/04 00:20:03;;;;;;;1.77;1.20;;;7.60;99.90;;;;;;5076516;28;20284;-93
2020/12/04 00:22:29;;;;;;;1.50;1.37;;;7.60;99.90;;;;;;5076581;28;20205;-93
2020/12/04 00:24:56;;;;;;;1.93;1.30;;;7.60;99.90;;;;;;5077049;28;20221;-93
2020/12/04 00:27:22;;;;;;;3.10;1.30;;;7.60;99.90;;;;;;5076829;28;20642;-92
2020/12/04 00:29:49;;;;;;;1.23;1.13;;;7.60;99.90;;;;;;5076901;28;20664;-92
2020/12/04 00:32:16;;;;;;;1.30;1.20;;;7.60;99.90;;;;;;5076726;28;20720;-94
2020/12/04 00:34:43;;;;;;;1.60;1.50;;;7.70;99.90;;;;;;5077249;28;20288;-93
2020/12/04 00:37:11;;;;;;;1.10;1.10;;;7.60;99.90;;;;;;5077228;28;20289;-91
2020/12/04 00:39:37;;;;;;;4.53;1.00;;;7.60;99.90;;;;;;5077102;28;20319;-92
2020/12/04 00:42:04;;;;;;;0.97;0.97;;;7.70;99.90;;;;;;5077454;28;20601;-93
2020/12/04 00:44:31;;;;;;;1.10;1.10;;;7.70;99.90;;;;;;5076720;28;20256;-92
2020/12/04 00:47:00;;;;;;;1.53;1.00;;;7.70;99.90;;;;;;5076989;28;20372;-91
2020/12/04 00:49:27;;;;;;;0.80;0.80;;;7.70;99.90;;;;;;5078133;28;20591;-92
2020/12/04 00:51:54;;;;;;;0.80;0.80;;;7.80;99.90;;;;;;5079134;28;20312;-92
2020/12/04 00:54:21;;;;;;;0.80;0.70;;;7.60;99.90;;;;;;5080747;28;20613;-92
2020/12/04 00:56:47;;;;;;;0.83;0.83;;;7.60;99.90;;;;;;5081856;28;20210;-91
2020/12/04 00:59:13;;;;;;;0.93;0.93;;;7.60;99.90;;;;;;5076795;28;20230;-92
2020/12/04 01:01:43;;;;;;;1.70;1.27;;;7.50;99.90;;;;;;5077992;28;20193;-92
2020/12/04 01:04:10;;;;;;;1.00;1.00;;;7.60;99.90;;;;;;5079061;28;20198;-93
2020/12/04 01:06:37;;;;;;;1.10;1.10;;;7.80;99.90;;;;;;5078514;28;20214;-92
2020/12/04 01:09:05;;;;;;;1.17;0.80;;;7.60;99.90;;;;;;5078271;28;20241;-93
2020/12/04 01:11:32;;;;;;;0.70;0.70;;;7.60;99.90;;;;;;5078433;28;20645;-94
2020/12/04 01:13:58;;;;;;;1.27;0.90;;;7.60;99.90;;;;;;5076048;28;20624;-91
2020/12/04 01:16:25;;;;;;;0.80;0.80;;;7.60;99.90;;;;;;5077175;28;20209;-93
2020/12/04 01:18:51;;;;;;;0.80;0.80;;;7.50;99.90;;;;;;5077324;28;20249;-92
2020/12/04 01:21:18;;;;;;;0.87;0.87;;;7.60;99.90;;;;;;5077006;28;20232;-92
2020/12/04 01:23:46;;;;;;;1.00;1.00;;;7.60;99.90;;;;;;5076209;28;20241;-90
2020/12/04 01:26:12;;;;;;;0.70;0.70;;;7.70;99.90;;;;;;5078013;28;20547;-92
2020/12/04 01:28:43;;;;;;;1.63;1.00;;;7.80;99.90;;;;;;5080562;28;20225;-91
2020/12/04 01:31:10;;;;;;;3.03;0.80;;;7.60;99.90;;;;;;5087012;28;20587;-91
2020/12/04 01:33:36;;;;;;;0.80;0.80;;;7.60;99.90;;;;;;5076912;28;20243;-91
2020/12/04 01:36:03;;;;;;;0.70;0.70;;;7.70;99.90;;;;;;5077632;28;20266;-93
2020/12/04 01:38:29;;;;;;;0.90;0.90;;;7.70;99.90;;;;;;5076124;28;20257;-91
2020/12/04 01:41:01;;;;;;;0.70;0.70;;;7.70;99.90;;;;;;5076216;28;20209;-93
2020/12/04 01:43:28;;;;;;;1.00;0.83;;;7.60;99.90;;;;;;5075925;28;20657;-93
2020/12/04 01:45:55;;;;;;;7.80;1.10;;;7.70;99.90;;;;;;5075435;28;20684;-92
2020/12/04 01:48:21;;;;;;;0.73;0.73;;;7.80;99.90;;;;;;5077044;28;20256;-92
2020/12/04 01:50:50;;;;;;;0.70;0.70;;;7.80;99.90;;;;;;5076877;28;20236;-92
2020/12/04 01:53:17;;;;;;;1.07;1.00;;;7.80;99.90;;;;;;5077237;28;20260;-94
2020/12/04 01:55:43;;;;;;;0.80;0.80;;;7.80;99.90;;;;;;5077654;28;20660;-92
2020/12/04 01:58:12;;;;;;;0.80;0.80;;;7.80;99.90;;;;;;5076299;28;20222;-92
2020/12/04 02:00:39;;;;;;;0.90;0.90;;;7.90;99.90;;;;;;5076660;28;20209;-93
2020/12/04 02:03:07;;;;;;;0.90;0.90;;;7.80;99.90;;;;;;5075948;28;20255;-93
2020/12/04 02:05:37;;;;;;;0.80;0.80;;;7.80;99.90;;;;;;5076194;28;20547;-91
2020/12/04 02:08:09;;;;;;;0.70;0.70;;;7.80;99.90;;;;;;5076303;28;20275;-92
2020/12/04 02:10:41;;;;;;;1.03;1.03;;;7.80;99.90;;;;;;5076038;28;20225;-92
2020/12/04 02:13:08;;;;;;;0.90;0.90;;;7.80;99.90;;;;;;5077929;28;20229;-92
2020/12/04 02:15:36;;;;;;;0.70;0.70;;;7.90;99.90;;;;;;5078837;28;20210;-92
2020/12/04 02:18:04;;;;;;;0.90;0.90;;;7.90;99.90;;;;;;5081517;28;20226;-92
2020/12/04 02:20:33;;;;;;;0.97;0.97;;;7.90;99.90;;;;;;5080355;28;20631;-90
2020/12/04 02:23:00;;;;;;;1.37;0.90;;;8.00;99.90;;;;;;5079975;28;20218;-94
2020/12/04 02:25:27;;;;;;;1.00;1.00;;;8.00;99.90;;;;;;5080383;28;20297;-91
2020/12/04 02:27:54;;;;;;;1.00;1.00;;;8.00;99.90;;;;;;5082408;28;20304;-94
2020/12/04 02:30:25;;;;;;;3.30;0.87;;;8.10;99.90;;;;;;5080311;28;20266;-92
2020/12/04 02:32:53;;;;;;;1.00;1.00;;;8.10;99.90;;;;;;5082977;28;20229;-93
2020/12/04 02:35:20;;;;;;;0.93;0.90;;;8.20;99.90;;;;;;5084946;28;20204;-93
2020/12/04 02:37:47;;;;;;;1.17;0.93;;;8.10;99.90;;;;;;5082699;28;20279;-93
2020/12/04 02:40:14;;;;;;;3.93;2.33;;;8.30;99.90;;;;;;5083819;28;20240;-92
2020/12/04 02:42:42;;;;;;;0.70;0.70;;;8.30;99.90;;;;;;5083234;28;20206;-93
2020/12/04 02:45:09;;;;;;;0.90;0.90;;;8.30;99.90;;;;;;5082374;28;20206;-93
2020/12/04 02:47:36;;;;;;;1.67;0.90;;;8.30;99.90;;;;;;5082394;28;20226;-94
2020/12/04 02:50:02;;;;;;;2.20;0.80;;;8.40;99.90;;;;;;5080540;28;20205;-94
2020/12/04 02:52:29;;;;;;;1.00;1.00;;;8.40;99.90;;;;;;5081440;28;20225;-95
2020/12/04 02:54:57;;;;;;;1.00;1.00;;;8.30;99.90;;;;;;5080239;28;20206;-91
2020/12/04 02:57:23;;;;;;;0.80;0.80;;;8.30;99.90;;;;;;5078760;28;20194;-92
2020/12/04 02:59:50;;;;;;;0.60;0.60;;;8.40;99.90;;;;;;5080612;28;20222;-92
2020/12/04 03:02:16;;;;;;;0.60;0.60;;;8.30;99.90;;;;;;5081523;28;20240;-92
2020/12/04 03:04:44;;;;;;;1.33;0.70;;;8.30;99.90;;;;;;5083063;28;20218;-90
2020/12/04 03:07:11;;;;;;;0.90;0.70;;;8.30;99.90;;;;;;5080403;28;20213;-91
2020/12/04 03:09:37;;;;;;;1.37;0.70;;;8.20;99.90;;;;;;5082055;28;20220;-92
2020/12/04 03:12:05;;;;;;;0.73;0.73;;;8.20;99.90;;;;;;5081708;28;20264;-94
2020/12/04 03:14:32;;;;;;;0.80;0.70;;;8.40;99.90;;;;;;5081814;28;20626;-93
2020/12/04 03:16:59;;;;;;;0.67;0.67;;;8.30;99.90;;;;;;5079606;28;20653;-91
2020/12/04 03:19:25;;;;;;;0.73;0.73;;;8.30;99.90;;;;;;5079980;28;20248;-91
2020/12/04 03:21:52;;;;;;;1.20;0.80;;;8.20;99.90;;;;;;5078379;28;20611;-91
2020/12/04 03:24:18;;;;;;;1.57;0.63;;;8.20;99.90;;;;;;5078595;28;20217;-91
2020/12/04 03:26:45;;;;;;;1.27;0.70;;;8.30;99.90;;;;;;5078252;28;20229;-93
2020/12/04 03:29:12;;;;;;;0.60;0.60;;;8.40;99.90;;;;;;5077955;28;20313;-93
2020/12/04 03:31:39;;;;;;;1.60;0.87;;;8.30;99.90;;;;;;5079374;28;20233;-91
2020/12/04 03:34:05;;;;;;;1.03;0.80;;;8.40;99.90;;;;;;5078318;28;20586;-93
2020/12/04 03:36:32;;;;;;;3.93;0.80;;;8.40;99.90;;;;;;5078285;28;20213;-93
2020/12/04 03:38:58;;;;;;;1.97;0.70;;;8.50;99.90;;;;;;5077306;28;20264;-92
2020/12/04 03:41:25;;;;;;;0.63;0.63;;;8.50;99.90;;;;;;5078047;28;20256;-91
2020/12/04 03:43:51;;;;;;;0.57;0.57;;;8.50;99.90;;;;;;5078217;28;20217;-92
2020/12/04 03:46:19;;;;;;;1.70;0.60;;;8.50;99.90;;;;;;5078344;28;20649;-92
2020/12/04 03:48:45;;;;;;;0.97;0.50;;;8.50;99.90;;;;;;5078548;28;20236;-89
2020/12/04 03:51:12;;;;;;;0.70;0.70;;;8.60;99.90;;;;;;5077541;28;20225;-92
2020/12/04 03:53:38;;;;;;;2.83;0.73;;;8.50;99.90;;;;;;5077182;28;20649;-93
2020/12/04 03:56:05;;;;;;;0.57;0.57;;;8.60;99.90;;;;;;5077963;28;20233;-92
2020/12/04 03:58:31;;;;;;;2.77;0.40;;;8.70;99.90;;;;;;5077346;28;20748;-92
2020/12/04 04:00:57;;;;;;;1.80;0.70;;;8.60;99.90;;;;;;5077790;28;20293;-93
2020/12/04 04:03:25;;;;;;;0.90;0.50;;;8.70;99.90;;;;;;5077999;28;20226;-91
2020/12/04 04:05:51;;;;;;;1.10;0.40;;;8.70;99.90;;;;;;5076785;28;20289;-91
2020/12/04 04:08:18;;;;;;;1.13;0.80;;;8.60;99.90;;;;;;5077004;28;20261;-92
2020/12/04 04:10:44;;;;;;;2.93;0.80;;;8.60;99.90;;;;;;5078300;28;20209;-92
2020/12/04 04:13:11;;;;;;;0.60;0.60;;;8.70;99.90;;;;;;5077982;28;20258;-93
2020/12/04 04:15:37;;;;;;;1.57;0.40;;;8.60;99.90;;;;;;5078860;28;20210;-93
2020/12/04 04:18:04;;;;;;;1.07;0.43;;;8.60;99.90;;;;;;5077289;28;20256;-93
2020/12/04 04:20:32;;;;;;;1.50;0.50;;;8.50;99.90;;;;;;5076649;28;20226;-93
2020/12/04 04:22:58;;;;;;;0.73;0.60;;;8.40;99.90;;;;;;5077874;28;20206;-93
2020/12/04 04:25:25;;;;;;;0.53;0.30;;;8.40;99.90;;;;;;5077334;28;20202;-94
2020/12/04 04:27:51;;;;;;;2.33;0.67;;;8.30;99.90;;;;;;5076878;28;20249;-92
2020/12/04 04:30:18;;;;;;;2.37;1.03;;;8.30;99.90;;;;;;5076726;28;20225;-92
2020/12/04 04:32:44;;;;;;;1.10;0.50;;;8.40;99.90;;;;;;5076818;28;20222;-93
2020/12/04 04:35:10;;;;;;;0.97;0.43;;;8.30;99.90;;;;;;5080198;28;20222;-91
2020/12/04 04:37:38;;;;;;;0.30;0.30;;;8.00;99.90;;;;;;5079541;28;20672;-93
2020/12/04 04:40:05;;;;;;;0.70;0.40;;;8.10;99.90;;;;;;5080198;28;20680;-93
2020/12/04 04:42:31;;;;;;;0.87;0.73;;;7.90;99.90;;;;;;5080390;28;20210;-89
2020/12/04 04:45:01;;;;;;;0.57;0.30;;;7.90;99.90;;;;;;5080754;28;20263;-91
2020/12/04 04:47:31;;;;;;;0.50;0.50;;;7.90;99.90;;;;;;5079241;28;20236;-89
2020/12/04 04:49:59;;;;;;;0.40;0.40;;;7.80;99.90;;;;;;5078996;28;20236;-93
2020/12/04 04:52:27;;;;;;;1.50;0.40;;;7.90;99.90;;;;;;5078435;28;20226;-91
2020/12/04 04:54:55;;;;;;;0.77;0.60;;;7.90;99.90;;;;;;5079032;28;20198;-91
2020/12/04 04:57:26;;;;;;;0.43;0.40;;;8.00;99.90;;;;;;5078424;28;20628;-91
2020/12/04 04:59:53;;;;;;;0.67;0.50;;;8.00;99.90;;;;;;5076636;28;20240;-94
2020/12/04 05:02:20;;;;;;;0.63;0.63;;;8.10;99.90;;;;;;5076097;28;20213;-93
2020/12/04 05:04:51;;;;;;;0.47;0.40;;;8.00;99.90;;;;;;5076982;28;20228;-91
2020/12/04 05:07:25;;;;;;;0.50;0.40;;;8.00;99.90;;;;;;5076504;28;20214;-93
2020/12/04 05:09:51;;;;;;;0.40;0.40;;;7.90;99.90;;;;;;5076237;28;20280;-92
2020/12/04 05:12:19;;;;;;;0.30;0.30;;;7.80;99.90;;;;;;5077272;28;20253;-90
2020/12/04 05:14:45;;;;;;;0.40;0.40;;;7.80;99.90;;;;;;5075798;28;20589;-93
2020/12/04 05:17:12;;;;;;;1.23;0.40;;;7.70;99.90;;;;;;5076093;28;20289;-90
2020/12/04 05:19:41;;;;;;;0.43;0.43;;;7.80;99.90;;;;;;5075476;28;20202;-91
2020/12/04 05:22:10;;;;;;;0.20;0.20;;;8.00;99.90;;;;;;5076186;28;20676;-91
2020/12/04 05:24:36;;;;;;;2.73;0.63;;;7.90;99.90;;;;;;5075949;28;20618;-95
2020/12/04 05:27:23;;;;;;;0.73;0.40;;;7.90;99.90;;;;;;5077084;28;20202;-92
2020/12/04 05:29:49;;;;;;;0.57;0.50;;;7.80;99.90;;;;;;5075861;28;20210;-94
2020/12/04 05:32:16;;;;;;;0.30;0.30;;;7.90;99.90;;;;;;5075592;28;20257;-95
2020/12/04 05:34:42;;;;;;;0.37;0.13;;;7.90;99.90;;;;;;5075212;28;20228;-91
2020/12/04 05:37:10;;;;;;;0.70;0.30;;;7.90;99.90;;;;;;5076242;28;20289;-93
2020/12/04 05:39:44;;;;;;;0.30;0.30;;;7.90;99.90;;;;;;5075810;28;20237;-92
2020/12/04 05:42:11;;;;;;;2.47;0.40;;;7.80;99.90;;;;;;5077303;28;20467;-91
2020/12/04 05:44:53;;;;;;;0.30;0.30;;;7.90;99.90;;;;;;5076978;28;20206;-91
2020/12/04 05:47:21;;;;;;;0.40;0.40;;;7.80;99.90;;;;;;5074789;28;20209;-91
2020/12/04 05:49:48;;;;;;;0.30;0.30;;;7.80;99.90;;;;;;5075025;28;20231;-91
2020/12/04 05:52:15;;;;;;;0.40;0.40;;;7.80;99.90;;;;;;5081555;28;20237;-91
2020/12/04 05:54:46;;;;;;;0.40;0.40;;;7.90;99.90;;;;;;5076501;28;20206;-92
2020/12/04 05:57:16;;;;;;;0.30;0.30;;;7.90;99.90;;;;;;5076530;28;20740;-91
2020/12/04 05:59:45;;;;;;;0.40;0.40;;;7.90;99.90;;;;;;5076303;28;20206;-90
2020/12/04 06:02:15;;;;;;;0.30;0.30;;;7.80;99.90;;;;;;5074425;28;20194;-90
2020/12/04 06:04:42;;;;;;;0.63;0.40;;;7.80;99.90;;;;;;5074474;28;20733;-92
2020/12/04 06:07:13;;;;;;;0.60;0.60;;;7.80;99.90;;;;;;5074782;28;20206;-91
2020/12/04 06:09:40;;;;;;;4.47;0.40;;;7.70;99.90;;;;;;5074797;28;20197;-91
2020/12/04 06:12:11;;;;;;;1.77;0.47;;;7.70;99.90;;;;;;5074953;28;20232;-92
2020/12/04 06:14:38;;;;;;;0.20;0.20;;;7.70;99.90;;;;;;5074602;28;20285;-93
2020/12/04 06:17:13;;;;;;;1.90;0.40;;;7.60;99.90;;;;;;5074404;28;20190;-92
2020/12/04 06:19:40;;;;;;;5.10;0.40;;;7.70;99.90;;;;;;5074771;28;20211;-91
2020/12/04 06:22:08;;;;;;;1.27;0.20;;;7.70;99.90;;;;;;5056377;28;20213;-90
2020/12/04 06:25:00;;;;;;;1.03;0.30;;;7.60;99.90;;;;;;5074144;28;20273;-93
2020/12/04 06:27:43;;;;;;;1.53;0.30;;;7.60;99.90;;;;;;5074311;28;20201;-93
2020/12/04 06:30:10;;;;;;;0.37;0.37;;;7.70;99.90;;;;;;5074182;28;20212;-90
2020/12/04 06:32:41;;;;;;;0.37;0.30;;;7.60;99.90;;;;;;5074254;28;20244;-90
2020/12/04 06:35:09;;;;;;;0.50;0.40;;;7.60;99.90;;;;;;5073891;28;20213;-90
2020/12/04 06:37:37;;;;;;;0.60;0.37;;;7.50;99.90;;;;;;5074319;28;20232;-90
2020/12/04 06:40:26;;;;;;;0.47;0.40;;;7.50;99.90;;;;;;5074306;28;20277;-90
2020/12/04 06:42:53;;;;;;;1.03;0.30;;;7.50;99.90;;;;;;5074077;28;20206;-93
2020/12/04 06:45:19;;;;;;;0.20;0.20;;;7.50;99.90;;;;;;5074478;28;20236;-94
2020/12/04 06:48:11;;;;;;;2.43;1.23;;;7.50;99.90;;;;;;5073795;28;20233;-90
2020/12/04 06:50:41;;;;;;;3.07;0.40;;;7.50;99.90;;;;;;5073993;28;20209;-92
2020/12/04 06:53:09;;;;;;;0.30;0.30;;;7.50;99.90;;;;;;5056166;28;20338;-92
2020/12/04 06:55:36;;;;;;;1.60;0.30;;;7.50;99.90;;;;;;5074300;28;20202;-91
2020/12/04 06:58:02;;;;;;;0.30;0.30;;;7.50;99.90;;;;;;5073867;28;20637;-96
2020/12/04 07:00:30;;;;;;;0.30;0.30;;;7.50;99.90;;;;;;5074610;28;20211;-90
2020/12/04 07:02:58;;;;;;;0.93;0.50;;;7.40;99.90;;;;;;5077998;28;20205;-94
2020/12/04 07:05:26;;;;;;;0.87;0.37;;;7.50;99.90;;;;;;5077252;28;20189;-91
2020/12/04 07:08:02;;;;;;;6.10;0.60;;;7.50;99.90;;;;;;5077404;28;20230;-92
2020/12/04 07:10:31;;;;;;;1.53;0.60;;;7.50;99.90;;;;;;5077444;28;20739;-93
2020/12/04 07:12:58;;;;;;;0.50;0.50;;;7.50;99.90;;;;;;5077659;28;20724;-94
2020/12/04 07:15:25;;;;;;;0.63;0.40;;;7.50;99.90;;;;;;5077808;28;20198;-91
2020/12/04 07:17:51;;;;;;;2.30;0.60;;;7.60;99.90;;;;;;5077896;28;20244;-91
2020/12/04 07:20:18;;;;;;;1.07;0.50;;;7.60;99.90;;;;;;5077004;28;20210;-91
2020/12/04 07:22:46;;;;;;;0.53;0.53;;;7.50;99.90;;;;;;5059283;28;20210;-92
2020/12/04 07:25:12;;;;;;;1.17;1.00;;;7.60;99.90;;;;;;5078450;28;20206;-89
2020/12/04 07:27:39;;;;;;;1.47;0.60;;;7.70;99.90;;;;;;5085834;28;20281;-90
2020/12/04 07:30:13;;;;;;;1.03;0.80;;;7.60;99.90;;;;;;5085657;28;20660;-89
2020/12/04 07:32:47;;;;;;;1.60;0.40;;;7.60;99.90;;;;;;5078167;28;20741;-90
2020/12/04 07:35:14;;;;;;;0.63;0.63;;;7.50;99.90;;;;;;5078715;28;20185;-90
2020/12/04 07:37:40;;;;;;;1.13;1.07;;;7.60;99.90;;;;;;5081698;28;20321;-88
2020/12/04 07:40:07;;;;;;;1.27;0.50;;;7.50;99.90;;;;;;5080898;28;20202;-89
2020/12/04 07:42:34;;;;;;;2.70;0.80;;;7.50;99.90;;;;;;5078267;28;20206;-93
2020/12/04 07:45:00;;;;;;;1.53;0.60;;;7.60;99.90;;;;;;5078188;28;20190;-88
2020/12/04 07:47:26;;;;;;;1.10;0.60;;;7.50;99.90;;;;;;5079550;28;20208;-90
2020/12/04 07:49:56;;;;;;;1.23;0.80;;;7.60;99.90;;;;;;5079039;28;20205;-89
2020/12/04 07:52:24;;;;;;;1.00;0.50;;;7.60;99.90;;;;;;5078207;28;20234;-90
2020/12/04 07:54:57;;;;;;;0.47;0.40;;;7.70;99.90;;;;;;5078200;28;20202;-88
2020/12/04 07:57:31;;;;;;;0.50;0.50;;;7.70;99.90;;;;;;5059573;28;20676;-90
2020/12/04 07:59:59;;;;;;;1.40;0.50;;;7.70;99.90;;;;;;5078436;28;20293;-89
2020/12/04 08:02:27;;;;;;;0.40;0.40;;;7.70;99.90;;;;;;5079314;28;20186;-90
2020/12/04 08:04:55;;;;;;;2.00;0.83;;;7.60;99.90;;;;;;5082902;28;20264;-87
2020/12/04 08:07:27;;;;;;;0.57;0.50;;;7.60;99.90;;;;;;5084052;28;20213;-89
2020/12/04 08:09:53;;;;;;;1.20;0.63;;;7.50;99.90;;;;;;5079518;28;20656;-89
2020/12/04 08:12:23;;;;;;;2.30;0.63;;;7.50;99.90;;;;;;5076166;28;20226;-89
2020/12/04 08:14:53;;;;;;;0.67;0.57;;;7.60;99.90;;;;;;5076333;28;20288;-87
2020/12/04 08:17:20;;;;;;;2.03;0.50;;;7.60;99.90;;;;;;5076188;28;20202;-90
2020/12/04 08:19:47;;;;;;;6.60;0.60;;;7.60;99.90;;;;;;5075826;28;20213;-87
2020/12/04 08:22:14;;;;;;;2.03;1.17;;;7.60;99.90;;;;;;5076412;28;20656;-91
2020/12/04 08:24:41;;;;;;;1.37;0.70;;;7.60;99.90;;;;;;5076415;28;20194;-90
2020/12/04 08:27:10;;;;;;;0.87;0.50;;;7.60;99.90;;;;;;5076568;28;20656;-87
2020/12/04 08:29:38;;;;;;;0.40;0.40;;;7.60;99.90;;;;;;5076019;28;20208;-91
2020/12/04 08:32:14;;;;;;;0.73;0.60;;;7.60;99.90;;;;;;5075899;28;20197;-89
2020/12/04 08:34:42;;;;;;;1.30;0.40;;;7.50;99.90;;;;;;5075976;28;20616;-88
2020/12/04 08:37:10;;;;;;;0.90;0.60;;;7.40;99.90;;;;;;5076092;28;20201;-90
2020/12/04 08:39:42;;;;;;;2.00;0.40;;;7.40;99.90;;;;;;5075360;28;20726;-90
2020/12/04 08:42:17;;;;;;;1.60;0.70;;;7.50;99.90;;;;;;5075863;28;20267;-91
2020/12/04 08:44:53;;;;;;;1.07;0.50;;;7.70;99.90;;;;;;5075344;28;20633;-87
2020/12/04 08:47:27;;;;;;;0.60;0.50;;;7.60;99.90;;;;;;5075489;28;20229;-89
2020/12/04 08:49:54;;;;;;;0.40;0.40;;;7.50;99.90;;;;;;5075559;28;20290;-88
2020/12/04 08:52:37;;;;;;;0.60;0.40;;;7.40;99.90;;;;;;5075985;28;20230;-90
2020/12/04 08:55:12;;;;;;;2.13;0.60;;;7.50;99.90;;;;;;5075906;28;20462;-88
2020/12/04 08:57:39;;;;;;;1.87;0.60;;;7.60;99.90;;;;;;5075544;28;20248;-90
2020/12/04 09:00:08;;;;;;;1.47;0.60;;;7.60;99.90;;;;;;5075876;28;20228;-88
2020/12/04 09:02:37;;;;;;;0.70;0.30;;;7.70;99.90;;;;;;5075296;28;20557;-90
2020/12/04 09:05:04;;;;;;;1.27;0.60;;;7.70;99.90;;;;;;5075667;28;20616;-91
2020/12/04 09:07:30;;;;;;;1.57;0.40;;;7.60;99.90;;;;;;5075750;28;20722;-91
2020/12/04 09:09:57;;;;;;;0.50;0.50;;;7.50;99.90;;;;;;5076335;28;20208;-88
2020/12/04 09:12:24;;;;;;;2.00;0.50;;;7.50;99.90;;;;;;5075703;28;20308;-90
2020/12/04 09:14:50;;;;;;;1.47;0.40;;;7.50;99.90;;;;;;5075359;28;20208;-90
2020/12/04 09:17:17;;;;;;;1.07;0.50;;;7.40;99.90;;;;;;5076009;28;20626;-91
2020/12/04 09:19:45;;;;;;;0.60;0.40;;;7.40;99.90;;;;;;5075100;28;20215;-91
2020/12/04 09:22:12;;;;;;;0.50;0.40;;;7.30;99.90;;;;;;5075359;28;20209;-91
2020/12/04 09:24:39;;;;;;;0.77;0.50;;;7.30;99.90;;;;;;5074178;28;20220;-92
2020/12/04 09:27:05;;;;;;;0.40;0.40;;;7.30;99.90;;;;;;5074979;28;20629;-89
2020/12/04 09:29:31;;;;;;;1.53;0.60;;;7.40;99.90;;;;;;5074795;28;20332;-90
2020/12/04 09:32:04;;;;;;;0.73;0.63;;;7.50;99.90;;;;;;5074849;28;20201;-88
2020/12/04 09:34:31;;;;;;;1.80;0.50;;;7.40;99.90;;;;;;5074648;28;20281;-91
2020/12/04 09:37:13;;;;;;;0.40;0.40;;;7.50;99.90;;;;;;5080772;28;20205;-93
2020/12/04 09:39:43;;;;;;;0.90;0.43;;;7.40;99.90;;;;;;5076563;28;20668;-92
2020/12/04 09:42:09;;;;;;;4.90;0.83;;;7.60;99.90;;;;;;5075355;28;20198;-92
2020/12/04 09:44:36;;;;;;;6.50;1.43;;;7.50;99.90;;;;;;5074891;28;20213;-92
2020/12/04 09:47:02;;;;;;;28.60;2.73;;;7.60;99.90;;;;;;5075430;28;20297;-90
2020/12/04 09:49:29;;;;;;;4.10;0.60;;;7.50;99.90;;;;;;5074558;28;20226;-89
2020/12/04 09:51:57;;;;;;;1.40;0.97;;;7.50;99.90;;;;;;5074652;28;20206;-91
2020/12/04 09:54:25;;;;;;;2.00;0.50;;;7.50;99.90;;;;;;5074590;28;20228;-90
2020/12/04 09:56:53;;;;;;;2.73;0.70;;;7.50;99.90;;;;;;5075081;28;20216;-92
2020/12/04 09:59:20;;;;;;;2.05;0.80;;;7.60;99.90;;;;;;5073670;28;20794;-91
2020/12/04 10:01:48;;;;;;;5.20;0.70;;;7.60;99.90;;;;;;5075066;28;20560;-90
2020/12/04 10:04:15;;;;;;;2.53;0.70;;;7.60;99.90;;;;;;5074617;28;20212;-91
2020/12/04 10:06:41;;;;;;;1.00;0.60;;;7.80;99.90;;;;;;5075312;28;20280;-92
2020/12/04 10:09:07;;;;;;;0.60;0.60;;;7.70;99.90;;;;;;5074409;28;20240;-89
2020/12/04 10:11:34;;;;;;;0.70;0.70;;;7.70;99.90;;;;;;5074976;28;20202;-90
2020/12/04 10:14:01;;;;;;;0.60;0.60;;;7.60;99.90;;;;;;5074301;28;20688;-90
2020/12/04 10:16:28;;;;;;;1.43;0.80;;;7.60;99.90;;;;;;5074830;28;20197;-89
2020/12/04 10:18:54;;;;;;;1.23;1.20;;;7.60;99.90;;;;;;5114521;28;20575;-87
2020/12/04 10:21:20;;;;;;;1.60;0.60;;;7.50;99.90;;;;;;5114981;28;20204;-89
2020/12/04 10:23:47;;;;;;;1.63;0.70;;;7.50;99.90;;;;;;5114665;28;20208;-91
2020/12/04 10:26:13;;;;;;;1.17;0.70;;;7.60;99.90;;;;;;5096278;28;20609;-91
2020/12/04 10:28:40;;;;;;;0.70;0.70;;;7.60;99.90;;;;;;5114320;28;20708;-89
2020/12/04 10:31:06;;;;;;;0.73;0.50;;;7.50;99.90;;;;;;5114189;28;20791;-88
2020/12/04 10:33:33;;;;;;;2.90;0.70;;;7.60;99.90;;;;;;5114290;28;20723;-93
2020/12/04 10:36:01;;;;;;;2.00;0.60;;;7.50;99.90;;;;;;5116595;28;20200;-91
2020/12/04 10:38:28;;;;;;;0.40;0.40;;;7.60;99.90;;;;;;5119372;28;20258;-91
2020/12/04 10:40:55;;;;;;;0.50;0.50;;;7.60;99.90;;;;;;5118966;28;20211;-90
2020/12/04 10:43:21;;;;;;;0.47;0.43;;;7.50;99.90;;;;;;5119271;28;20208;-87
2020/12/04 10:45:49;;;;;;;0.40;0.40;;;7.40;99.90;;;;;;5118561;28;20284;-92
2020/12/04 10:48:16;;;;;;;0.50;0.50;;;7.50;99.90;;;;;;5118990;28;20225;-89
2020/12/04 10:50:43;;;;;;;0.40;0.40;;;7.50;99.90;;;;;;5119320;28;20193;-91
2020/12/04 10:53:10;;;;;;;2.67;0.67;;;7.40;99.90;;;;;;5119274;28;20717;-93
2020/12/04 10:55:36;;;;;;;0.60;0.60;;;7.40;99.90;;;;;;5118643;28;20674;-93
2020/12/04 10:58:03;;;;;;;1.13;0.67;;;7.30;99.90;;;;;;5119195;28;20307;-90
2020/12/04 11:00:29;;;;;;;1.33;0.60;;;7.40;99.90;;;;;;5120908;28;20208;-92
2020/12/04 11:03:02;;;;;;;1.30;0.60;;;7.30;99.90;;;;;;5121624;28;20318;-90
2020/12/04 11:05:38;;;;;;;0.73;0.60;;;7.40;99.90;;;;;;5121322;28;20215;-91
2020/12/04 11:10:47;;;;;;;0.83;0.80;;;7.60;99.90;;;;;;5123323;28;20268;-93
2020/12/04 11:13:13;;;;;;;1.33;0.80;;;7.70;99.90;;;;;;5121004;28;20277;-93
2020/12/04 11:15:40;;;;;;;1.73;0.60;;;7.70;99.90;;;;;;5122673;28;20250;-92
2020/12/04 11:18:07;;;;;;;0.70;0.70;;;7.60;99.90;;;;;;5118464;28;20232;-89
2020/12/04 11:20:34;;;;;;;0.53;0.53;;;7.70;99.90;;;;;;5118302;28;20208;-87
2020/12/04 11:23:00;;;;;;;0.60;0.50;;;8.00;99.90;;;;;;5117613;28;20202;-87
2020/12/04 11:25:26;;;;;;;1.27;0.77;;;7.80;99.90;;;;;;5118005;28;20184;-90
2020/12/04 11:27:53;;;;;;;0.97;0.60;;;8.00;99.90;;;;;;5118701;28;20224;-90
2020/12/04 11:30:21;;;;;;;1.30;0.60;;;7.90;99.90;;;;;;5119275;28;20232;-92
2020/12/04 11:32:49;;;;;;;1.80;0.90;;;7.80;99.90;;;;;;5119365;28;20311;-92
2020/12/04 11:35:18;;;;;;;16.13;3.63;;;7.80;99.90;;;;;;5119169;28;20227;-91
2020/12/04 11:37:47;;;;;;;0.40;0.40;;;7.90;99.90;;;;;;5117709;28;20235;-91
2020/12/04 11:40:14;;;;;;;1.53;0.60;;;7.90;99.90;;;;;;5118857;28;20211;-90
2020/12/04 11:42:43;;;;;;;0.80;0.70;;;7.90;99.90;;;;;;5120764;28;20658;-89
2020/12/04 11:45:11;;;;;;;1.47;0.73;;;8.00;99.90;;;;;;5118547;28;20224;-89
2020/12/04 11:47:38;;;;;;;1.20;1.10;;;8.20;99.90;;;;;;5117308;28;20224;-93
2020/12/04 11:50:05;;;;;;;1.40;1.17;;;8.30;99.90;;;;;;5118962;28;20291;-93
2020/12/04 11:52:33;;;;;;;2.63;0.67;;;8.40;99.90;;;;;;5117449;28;20201;-89
2020/12/04 11:54:59;;;;;;;19.60;2.17;;;8.40;99.90;;;;;;5118070;28;20673;-91
2020/12/04 11:57:26;;;;;;;8.27;1.93;;;8.30;99.90;;;;;;5100906;28;20201;-91
2020/12/04 11:59:52;;;;;;;2.40;1.10;;;8.30;99.90;;;;;;5117400;28;20207;-81
2020/12/04 12:02:18;;;;;;;1.27;1.17;;;8.30;99.90;;;;;;5116984;28;20199;-80
2020/12/04 12:04:45;;;;;;;2.70;1.20;;;8.20;99.90;;;;;;5116551;28;20209;-79
2020/12/04 12:07:11;;;;;;;3.83;1.00;;;8.30;99.90;;;;;;5116709;28;20232;-84
2020/12/04 12:09:39;;;;;;;2.97;0.70;;;8.30;99.90;;;;;;5116686;28;20185;-83
2020/12/04 12:12:05;;;;;;;1.53;0.90;;;8.10;99.90;;;;;;5116378;28;20279;-83
2020/12/04 12:14:31;;;;;;;0.87;0.60;;;8.00;99.90;;;;;;5116103;28;20240;-82
2020/12/04 12:16:58;;;;;;;3.70;0.80;;;8.20;99.90;;;;;;5117754;28;20197;-92
2020/12/04 12:19:24;;;;;;;0.70;0.70;;;8.20;99.90;;;;;;5117063;28;20303;-89
2020/12/04 12:21:52;;;;;;;2.53;0.73;;;8.30;99.90;;;;;;5117008;28;20189;-92
2020/12/04 12:24:18;;;;;;;3.70;0.97;;;8.20;99.90;;;;;;5117637;28;20200;-91
2020/12/04 12:26:47;;;;;;;5.70;1.50;;;8.30;99.90;;;;;;5116850;28;20665;-91
2020/12/04 12:29:14;;;;;;;2.07;1.00;;;8.20;99.90;;;;;;5116615;28;20754;-90
2020/12/04 12:31:40;;;;;;;3.40;0.63;;;8.30;99.90;;;;;;5117280;28;20205;-93
2020/12/04 12:34:07;;;;;;;4.20;0.97;;;8.20;99.90;;;;;;5116493;28;20644;-90
2020/12/04 12:36:33;;;;;;;2.00;0.73;;;8.20;99.90;;;;;;5117093;28;20200;-92
2020/12/04 12:39:00;;;;;;;1.70;0.90;;;8.30;99.90;;;;;;5116114;28;20279;-92
2020/12/04 12:41:26;;;;;;;2.93;0.83;;;8.50;99.90;;;;;;5116586;28;20644;-92
2020/12/04 12:43:54;;;;;;;4.53;1.05;;;8.40;99.90;;;;;;5117797;28;20508;-94
2020/12/04 12:46:23;;;;;;;3.93;0.80;;;8.50;99.90;;;;;;5120275;28;20208;-91
2020/12/04 12:48:49;;;;;;;2.70;1.00;;;8.70;99.90;;;;;;5118880;28;20650;-85
2020/12/04 12:51:16;;;;;;;1.13;0.83;;;8.70;99.90;;;;;;5116307;28;20200;-90
2020/12/04 12:53:42;;;;;;;1.60;0.87;;;8.70;99.90;;;;;;5098870;28;20236;-91
2020/12/04 12:56:09;;;;;;;0.70;0.63;;;8.90;99.90;;;;;;5116788;28;20207;-89
2020/12/04 12:58:35;;;;;;;5.40;0.80;;;8.60;99.90;;;;;;5117046;28;20342;-91
2020/12/04 13:01:04;;;;;;;2.10;0.80;;;8.30;99.90;;;;;;5122108;28;20235;-92
2020/12/04 13:03:31;;;;;;;2.40;1.00;;;8.30;99.90;;;;;;5099728;28;20210;-92